sensor_id;sensor_type;location;lat;lon;timestamp;P1;durP1;ratioP1;P2;durP2;ratioP2
29788;SDS011;64899;42.660;23.268;2022-11-18T00:01:21;26.65;;;16.48;;
29788;SDS011;64899;42.660;23.268;2022-11-18T00:03:48;28.13;;;16.38;;
29788;SDS011;64899;42.660;23.268;2022-11-18T00:06:18;26.77;;;15.38;;
29788;SDS011;64899;42.660;23.268;2022-11-18T00:08:48;26.77;;;16.38;;
29788;SDS011;64899;42.660;23.268;2022-11-18T00:11:16;24.00;;;15.65;;
29788;SDS011;64899;42.660;23.268;2022-11-18T00:14:02;26.17;;;16.20;;
29788;SDS011;64899;42.660;23.268;2022-11-18T00:16:44;23.25;;;13.63;;
29788;SDS011;64899;42.660;23.268;2022-11-18T00:19:20;21.45;;;13.82;;
29788;SDS011;64899;42.660;23.268;2022-11-18T00:21:47;25.77;;;14.70;;
29788;SDS011;64899;42.660;23.268;2022-11-18T00:24:13;24.25;;;14.63;;
29788;SDS011;64899;42.660;23.268;2022-11-18T00:26:38;23.52;;;13.40;;
29788;SDS011;64899;42.660;23.268;2022-11-18T00:29:04;27.33;;;14.80;;
29788;SDS011;64899;42.660;23.268;2022-11-18T00:31:29;24.35;;;14.57;;
29788;SDS011;64899;42.660;23.268;2022-11-18T00:33:55;21.45;;;13.75;;
29788;SDS011;64899;42.660;23.268;2022-11-18T00:36:20;23.42;;;14.15;;
29788;SDS011;64899;42.660;23.268;2022-11-18T00:38:46;22.75;;;13.50;;
29788;SDS011;64899;42.660;23.268;2022-11-18T00:41:12;19.20;;;13.02;;
29788;SDS011;64899;42.660;23.268;2022-11-18T00:43:39;24.55;;;13.52;;
29788;SDS011;64899;42.660;23.268;2022-11-18T00:46:06;18.90;;;13.30;;
29788;SDS011;64899;42.660;23.268;2022-11-18T00:48:33;22.17;;;13.25;;
29788;SDS011;64899;42.660;23.268;2022-11-18T00:51:05;24.70;;;13.13;;
29788;SDS011;64899;42.660;23.268;2022-11-18T00:53:38;21.63;;;14.23;;
29788;SDS011;64899;42.660;23.268;2022-11-18T00:56:03;24.45;;;14.05;;
29788;SDS011;64899;42.660;23.268;2022-11-18T00:58:29;24.77;;;14.98;;
29788;SDS011;64899;42.660;23.268;2022-11-18T01:00:55;23.13;;;14.15;;
29788;SDS011;64899;42.660;23.268;2022-11-18T01:03:20;21.25;;;13.60;;
29788;SDS011;64899;42.660;23.268;2022-11-18T01:05:46;24.10;;;15.07;;
29788;SDS011;64899;42.660;23.268;2022-11-18T01:08:12;25.67;;;14.23;;
29788;SDS011;64899;42.660;23.268;2022-11-18T01:10:38;22.92;;;13.45;;
29788;SDS011;64899;42.660;23.268;2022-11-18T01:13:04;24.10;;;13.98;;
29788;SDS011;64899;42.660;23.268;2022-11-18T01:15:55;22.63;;;13.57;;
29788;SDS011;64899;42.660;23.268;2022-11-18T01:18:23;21.67;;;13.82;;
29788;SDS011;64899;42.660;23.268;2022-11-18T01:20:50;24.08;;;13.80;;
29788;SDS011;64899;42.660;23.268;2022-11-18T01:23:16;24.90;;;13.35;;
29788;SDS011;64899;42.660;23.268;2022-11-18T01:25:43;21.35;;;13.85;;
29788;SDS011;64899;42.660;23.268;2022-11-18T01:28:10;22.13;;;13.55;;
29788;SDS011;64899;42.660;23.268;2022-11-18T01:30:36;22.35;;;13.25;;
29788;SDS011;64899;42.660;23.268;2022-11-18T01:33:03;20.02;;;12.77;;
29788;SDS011;64899;42.660;23.268;2022-11-18T01:35:33;21.90;;;13.82;;
29788;SDS011;64899;42.660;23.268;2022-11-18T01:37:59;21.63;;;14.30;;
29788;SDS011;64899;42.660;23.268;2022-11-18T01:40:25;23.30;;;15.00;;
29788;SDS011;64899;42.660;23.268;2022-11-18T01:42:51;22.83;;;13.98;;
29788;SDS011;64899;42.660;23.268;2022-11-18T01:45:27;20.60;;;13.43;;
29788;SDS011;64899;42.660;23.268;2022-11-18T01:48:20;20.92;;;12.95;;
29788;SDS011;64899;42.660;23.268;2022-11-18T01:50:56;20.27;;;13.60;;
29788;SDS011;64899;42.660;23.268;2022-11-18T01:53:26;21.33;;;13.23;;
29788;SDS011;64899;42.660;23.268;2022-11-18T01:55:57;23.63;;;13.73;;
29788;SDS011;64899;42.660;23.268;2022-11-18T01:58:26;24.50;;;13.07;;
29788;SDS011;64899;42.660;23.268;2022-11-18T02:00:54;23.67;;;14.32;;
29788;SDS011;64899;42.660;23.268;2022-11-18T02:03:20;24.25;;;14.20;;
29788;SDS011;64899;42.660;23.268;2022-11-18T02:05:46;24.38;;;13.82;;
29788;SDS011;64899;42.660;23.268;2022-11-18T02:08:13;24.38;;;15.38;;
29788;SDS011;64899;42.660;23.268;2022-11-18T02:10:39;22.70;;;15.82;;
29788;SDS011;64899;42.660;23.268;2022-11-18T02:13:05;23.98;;;15.57;;
29788;SDS011;64899;42.660;23.268;2022-11-18T02:29:35;22.65;;;14.18;;
29788;SDS011;64899;42.660;23.268;2022-11-18T02:32:09;26.92;;;16.23;;
29788;SDS011;64899;42.660;23.268;2022-11-18T02:42:43;24.25;;;15.05;;
29788;SDS011;64899;42.660;23.268;2022-11-18T02:45:11;30.55;;;16.15;;
29788;SDS011;64899;42.660;23.268;2022-11-18T02:47:39;24.10;;;14.88;;
29788;SDS011;64899;42.660;23.268;2022-11-18T02:50:08;26.45;;;16.08;;
29788;SDS011;64899;42.660;23.268;2022-11-18T02:52:36;24.08;;;14.95;;
29788;SDS011;64899;42.660;23.268;2022-11-18T02:55:03;22.83;;;14.05;;
29788;SDS011;64899;42.660;23.268;2022-11-18T02:57:30;24.98;;;14.95;;
29788;SDS011;64899;42.660;23.268;2022-11-18T02:59:57;28.65;;;14.98;;
29788;SDS011;64899;42.660;23.268;2022-11-18T03:02:23;25.50;;;14.20;;
29788;SDS011;64899;42.660;23.268;2022-11-18T03:04:48;23.80;;;14.90;;
29788;SDS011;64899;42.660;23.268;2022-11-18T03:07:20;30.85;;;16.27;;
29788;SDS011;64899;42.660;23.268;2022-11-18T03:09:53;24.20;;;14.38;;
29788;SDS011;64899;42.660;23.268;2022-11-18T03:12:24;22.20;;;13.98;;
29788;SDS011;64899;42.660;23.268;2022-11-18T03:15:43;22.15;;;13.85;;
29788;SDS011;64899;42.660;23.268;2022-11-18T03:23:35;20.30;;;13.23;;
29788;SDS011;64899;42.660;23.268;2022-11-18T03:34:35;24.38;;;15.30;;
29788;SDS011;64899;42.660;23.268;2022-11-18T03:37:05;26.05;;;14.88;;
29788;SDS011;64899;42.660;23.268;2022-11-18T03:39:33;27.00;;;16.42;;
29788;SDS011;64899;42.660;23.268;2022-11-18T03:42:11;26.85;;;15.73;;
29788;SDS011;64899;42.660;23.268;2022-11-18T03:44:47;26.70;;;14.52;;
29788;SDS011;64899;42.660;23.268;2022-11-18T03:47:16;25.20;;;15.20;;
29788;SDS011;64899;42.660;23.268;2022-11-18T03:49:49;25.65;;;15.30;;
29788;SDS011;64899;42.660;23.268;2022-11-18T03:52:19;25.30;;;14.63;;
29788;SDS011;64899;42.660;23.268;2022-11-18T03:54:47;26.38;;;16.08;;
29788;SDS011;64899;42.660;23.268;2022-11-18T03:57:18;23.27;;;15.02;;
29788;SDS011;64899;42.660;23.268;2022-11-18T03:59:50;28.35;;;15.40;;
29788;SDS011;64899;42.660;23.268;2022-11-18T04:02:26;24.63;;;15.07;;
29788;SDS011;64899;42.660;23.268;2022-11-18T04:04:53;29.55;;;14.55;;
29788;SDS011;64899;42.660;23.268;2022-11-18T04:09:51;25.65;;;15.93;;
29788;SDS011;64899;42.660;23.268;2022-11-18T04:12:20;24.15;;;15.25;;
29788;SDS011;64899;42.660;23.268;2022-11-18T04:14:46;24.85;;;14.88;;
29788;SDS011;64899;42.660;23.268;2022-11-18T04:17:18;28.13;;;16.48;;
29788;SDS011;64899;42.660;23.268;2022-11-18T04:19:45;29.88;;;17.17;;
29788;SDS011;64899;42.660;23.268;2022-11-18T04:22:10;34.22;;;19.88;;
29788;SDS011;64899;42.660;23.268;2022-11-18T04:24:36;33.45;;;18.50;;
29788;SDS011;64899;42.660;23.268;2022-11-18T04:27:02;34.60;;;18.20;;
29788;SDS011;64899;42.660;23.268;2022-11-18T04:29:28;32.10;;;18.10;;
29788;SDS011;64899;42.660;23.268;2022-11-18T04:31:54;32.80;;;19.55;;
29788;SDS011;64899;42.660;23.268;2022-11-18T04:34:20;35.92;;;21.20;;
29788;SDS011;64899;42.660;23.268;2022-11-18T04:36:45;40.30;;;21.85;;
29788;SDS011;64899;42.660;23.268;2022-11-18T04:39:11;41.25;;;21.92;;
29788;SDS011;64899;42.660;23.268;2022-11-18T04:41:36;32.78;;;20.48;;
29788;SDS011;64899;42.660;23.268;2022-11-18T04:44:20;43.83;;;25.45;;
29788;SDS011;64899;42.660;23.268;2022-11-18T04:46:53;38.67;;;23.65;;
29788;SDS011;64899;42.660;23.268;2022-11-18T04:49:19;41.15;;;23.00;;
29788;SDS011;64899;42.660;23.268;2022-11-18T04:51:45;41.30;;;23.90;;
29788;SDS011;64899;42.660;23.268;2022-11-18T04:54:11;43.08;;;24.00;;
29788;SDS011;64899;42.660;23.268;2022-11-18T04:56:36;50.13;;;27.80;;
29788;SDS011;64899;42.660;23.268;2022-11-18T04:59:03;55.97;;;31.63;;
29788;SDS011;64899;42.660;23.268;2022-11-18T05:01:29;58.13;;;31.23;;
29788;SDS011;64899;42.660;23.268;2022-11-18T05:03:54;51.40;;;31.95;;
29788;SDS011;64899;42.660;23.268;2022-11-18T05:06:20;48.58;;;28.35;;
29788;SDS011;64899;42.660;23.268;2022-11-18T05:08:45;57.95;;;29.50;;
29788;SDS011;64899;42.660;23.268;2022-11-18T05:11:11;53.60;;;29.80;;
29788;SDS011;64899;42.660;23.268;2022-11-18T05:13:55;58.08;;;31.50;;
29788;SDS011;64899;42.660;23.268;2022-11-18T05:16:20;70.10;;;34.97;;
29788;SDS011;64899;42.660;23.268;2022-11-18T05:18:46;81.63;;;38.00;;
29788;SDS011;64899;42.660;23.268;2022-11-18T05:21:11;73.93;;;35.67;;
29788;SDS011;64899;42.660;23.268;2022-11-18T05:23:37;68.28;;;34.95;;
29788;SDS011;64899;42.660;23.268;2022-11-18T05:26:03;66.22;;;34.35;;
29788;SDS011;64899;42.660;23.268;2022-11-18T05:28:32;81.82;;;38.08;;
29788;SDS011;64899;42.660;23.268;2022-11-18T05:30:57;74.28;;;36.25;;
29788;SDS011;64899;42.660;23.268;2022-11-18T05:33:23;76.35;;;37.00;;
29788;SDS011;64899;42.660;23.268;2022-11-18T05:35:48;90.93;;;39.90;;
29788;SDS011;64899;42.660;23.268;2022-11-18T05:38:14;91.05;;;38.25;;
29788;SDS011;64899;42.660;23.268;2022-11-18T05:40:42;106.35;;;39.97;;
29788;SDS011;64899;42.660;23.268;2022-11-18T05:43:10;82.03;;;35.88;;
29788;SDS011;64899;42.660;23.268;2022-11-18T05:45:36;124.82;;;38.63;;
29788;SDS011;64899;42.660;23.268;2022-11-18T05:48:03;122.22;;;36.38;;
29788;SDS011;64899;42.660;23.268;2022-11-18T05:50:30;133.63;;;37.33;;
29788;SDS011;64899;42.660;23.268;2022-11-18T05:52:56;146.70;;;37.28;;
29788;SDS011;64899;42.660;23.268;2022-11-18T05:55:22;116.82;;;32.75;;
29788;SDS011;64899;42.660;23.268;2022-11-18T05:57:51;89.18;;;33.30;;
29788;SDS011;64899;42.660;23.268;2022-11-18T06:00:16;94.43;;;31.30;;
29788;SDS011;64899;42.660;23.268;2022-11-18T06:02:42;137.98;;;33.75;;
29788;SDS011;64899;42.660;23.268;2022-11-18T06:05:09;162.25;;;34.70;;
29788;SDS011;64899;42.660;23.268;2022-11-18T06:07:37;72.75;;;31.23;;
29788;SDS011;64899;42.660;23.268;2022-11-18T06:10:04;66.95;;;31.13;;
29788;SDS011;64899;42.660;23.268;2022-11-18T06:12:32;75.57;;;31.27;;
29788;SDS011;64899;42.660;23.268;2022-11-18T06:15:02;70.28;;;31.20;;
29788;SDS011;64899;42.660;23.268;2022-11-18T06:17:30;73.50;;;31.30;;
29788;SDS011;64899;42.660;23.268;2022-11-18T06:19:59;80.78;;;31.17;;
29788;SDS011;64899;42.660;23.268;2022-11-18T06:22:24;67.82;;;32.20;;
29788;SDS011;64899;42.660;23.268;2022-11-18T06:24:50;69.80;;;31.73;;
29788;SDS011;64899;42.660;23.268;2022-11-18T06:27:15;68.90;;;32.47;;
29788;SDS011;64899;42.660;23.268;2022-11-18T06:29:41;66.15;;;32.00;;
29788;SDS011;64899;42.660;23.268;2022-11-18T06:32:07;82.75;;;32.33;;
29788;SDS011;64899;42.660;23.268;2022-11-18T06:34:32;72.75;;;33.05;;
29788;SDS011;64899;42.660;23.268;2022-11-18T06:36:58;66.85;;;30.15;;
29788;SDS011;64899;42.660;23.268;2022-11-18T06:39:23;70.25;;;30.27;;
29788;SDS011;64899;42.660;23.268;2022-11-18T06:41:51;70.32;;;29.58;;
29788;SDS011;64899;42.660;23.268;2022-11-18T06:44:17;76.68;;;29.17;;
29788;SDS011;64899;42.660;23.268;2022-11-18T06:46:42;60.28;;;27.90;;
29788;SDS011;64899;42.660;23.268;2022-11-18T06:49:20;59.30;;;28.52;;
29788;SDS011;64899;42.660;23.268;2022-11-18T06:51:45;72.22;;;26.58;;
29788;SDS011;64899;42.660;23.268;2022-11-18T06:54:11;77.13;;;26.27;;
29788;SDS011;64899;42.660;23.268;2022-11-18T06:56:36;79.22;;;25.52;;
29788;SDS011;64899;42.660;23.268;2022-11-18T06:59:02;56.42;;;26.42;;
29788;SDS011;64899;42.660;23.268;2022-11-18T07:01:29;71.07;;;26.77;;
29788;SDS011;64899;42.660;23.268;2022-11-18T07:03:56;74.07;;;29.27;;
29788;SDS011;64899;42.660;23.268;2022-11-18T07:06:23;74.70;;;28.00;;
29788;SDS011;64899;42.660;23.268;2022-11-18T07:08:50;60.17;;;26.15;;
29788;SDS011;64899;42.660;23.268;2022-11-18T07:11:17;68.00;;;28.40;;
29788;SDS011;64899;42.660;23.268;2022-11-18T07:13:44;63.70;;;26.88;;
29788;SDS011;64899;42.660;23.268;2022-11-18T07:16:11;72.45;;;29.45;;
29788;SDS011;64899;42.660;23.268;2022-11-18T07:18:38;63.35;;;28.98;;
29788;SDS011;64899;42.660;23.268;2022-11-18T07:21:10;77.57;;;30.85;;
29788;SDS011;64899;42.660;23.268;2022-11-18T07:23:36;83.70;;;33.33;;
29788;SDS011;64899;42.660;23.268;2022-11-18T07:26:02;80.47;;;32.20;;
29788;SDS011;64899;42.660;23.268;2022-11-18T07:28:28;93.65;;;34.30;;
29788;SDS011;64899;42.660;23.268;2022-11-18T07:31:00;66.60;;;30.45;;
29788;SDS011;64899;42.660;23.268;2022-11-18T07:33:33;71.18;;;30.63;;
29788;SDS011;64899;42.660;23.268;2022-11-18T07:36:00;60.97;;;28.25;;
29788;SDS011;64899;42.660;23.268;2022-11-18T07:38:29;63.25;;;29.05;;
29788;SDS011;64899;42.660;23.268;2022-11-18T07:40:55;64.03;;;29.92;;
29788;SDS011;64899;42.660;23.268;2022-11-18T07:43:31;64.28;;;31.52;;
29788;SDS011;64899;42.660;23.268;2022-11-18T07:45:57;59.38;;;29.40;;
29788;SDS011;64899;42.660;23.268;2022-11-18T07:48:22;65.32;;;29.63;;
29788;SDS011;64899;42.660;23.268;2022-11-18T07:50:48;45.60;;;22.80;;
29788;SDS011;64899;42.660;23.268;2022-11-18T07:53:13;40.58;;;20.85;;
29788;SDS011;64899;42.660;23.268;2022-11-18T07:55:38;62.40;;;29.27;;
29788;SDS011;64899;42.660;23.268;2022-11-18T07:58:04;62.05;;;29.00;;
29788;SDS011;64899;42.660;23.268;2022-11-18T08:00:29;57.97;;;29.52;;
29788;SDS011;64899;42.660;23.268;2022-11-18T08:02:54;66.82;;;28.42;;
29788;SDS011;64899;42.660;23.268;2022-11-18T08:05:20;66.75;;;29.50;;
29788;SDS011;64899;42.660;23.268;2022-11-18T08:07:45;63.08;;;30.20;;
29788;SDS011;64899;42.660;23.268;2022-11-18T08:10:10;67.70;;;30.83;;
29788;SDS011;64899;42.660;23.268;2022-11-18T08:12:36;73.65;;;34.05;;
29788;SDS011;64899;42.660;23.268;2022-11-18T08:15:01;80.47;;;34.28;;
29788;SDS011;64899;42.660;23.268;2022-11-18T08:17:27;74.15;;;32.92;;
29788;SDS011;64899;42.660;23.268;2022-11-18T08:19:52;74.00;;;34.95;;
29788;SDS011;64899;42.660;23.268;2022-11-18T08:22:17;66.88;;;33.50;;
29788;SDS011;64899;42.660;23.268;2022-11-18T08:24:45;73.68;;;35.15;;
29788;SDS011;64899;42.660;23.268;2022-11-18T08:27:11;66.30;;;30.83;;
29788;SDS011;64899;42.660;23.268;2022-11-18T08:29:37;59.38;;;29.70;;
29788;SDS011;64899;42.660;23.268;2022-11-18T08:32:02;64.57;;;30.48;;
29788;SDS011;64899;42.660;23.268;2022-11-18T08:34:28;68.97;;;30.30;;
29788;SDS011;64899;42.660;23.268;2022-11-18T08:36:53;62.15;;;28.48;;
29788;SDS011;64899;42.660;23.268;2022-11-18T08:39:19;62.30;;;28.15;;
29788;SDS011;64899;42.660;23.268;2022-11-18T08:41:44;63.00;;;28.38;;
29788;SDS011;64899;42.660;23.268;2022-11-18T08:44:12;65.18;;;28.40;;
29788;SDS011;64899;42.660;23.268;2022-11-18T08:46:40;62.58;;;27.23;;
29788;SDS011;64899;42.660;23.268;2022-11-18T08:49:06;68.65;;;27.50;;
29788;SDS011;64899;42.660;23.268;2022-11-18T08:51:31;61.50;;;25.40;;
29788;SDS011;64899;42.660;23.268;2022-11-18T08:53:57;58.20;;;24.95;;
29788;SDS011;64899;42.660;23.268;2022-11-18T08:56:22;60.15;;;24.13;;
29788;SDS011;64899;42.660;23.268;2022-11-18T08:58:48;60.72;;;24.52;;
29788;SDS011;64899;42.660;23.268;2022-11-18T09:01:14;49.28;;;23.90;;
29788;SDS011;64899;42.660;23.268;2022-11-18T09:03:40;49.80;;;24.95;;
29788;SDS011;64899;42.660;23.268;2022-11-18T09:06:10;52.60;;;25.15;;
29788;SDS011;64899;42.660;23.268;2022-11-18T09:08:40;52.63;;;23.75;;
29788;SDS011;64899;42.660;23.268;2022-11-18T09:11:11;48.28;;;21.20;;
29788;SDS011;64899;42.660;23.268;2022-11-18T09:13:37;54.53;;;19.80;;
29788;SDS011;64899;42.660;23.268;2022-11-18T09:16:02;38.38;;;18.73;;
29788;SDS011;64899;42.660;23.268;2022-11-18T09:18:29;38.75;;;19.73;;
29788;SDS011;64899;42.660;23.268;2022-11-18T09:20:55;35.22;;;16.63;;
29788;SDS011;64899;42.660;23.268;2022-11-18T09:23:21;32.42;;;15.70;;
29788;SDS011;64899;42.660;23.268;2022-11-18T09:25:47;24.45;;;12.70;;
29788;SDS011;64899;42.660;23.268;2022-11-18T09:28:12;30.13;;;14.60;;
29788;SDS011;64899;42.660;23.268;2022-11-18T09:30:37;36.95;;;15.48;;
29788;SDS011;64899;42.660;23.268;2022-11-18T09:33:03;34.05;;;16.25;;
29788;SDS011;64899;42.660;23.268;2022-11-18T09:35:28;32.88;;;16.70;;
29788;SDS011;64899;42.660;23.268;2022-11-18T09:37:54;32.72;;;16.60;;
29788;SDS011;64899;42.660;23.268;2022-11-18T09:40:19;27.88;;;15.00;;
29788;SDS011;64899;42.660;23.268;2022-11-18T09:42:57;32.47;;;16.38;;
29788;SDS011;64899;42.660;23.268;2022-11-18T09:45:32;25.42;;;14.02;;
29788;SDS011;64899;42.660;23.268;2022-11-18T09:48:01;26.88;;;13.18;;
29788;SDS011;64899;42.660;23.268;2022-11-18T09:50:42;22.77;;;12.40;;
29788;SDS011;64899;42.660;23.268;2022-11-18T09:53:21;23.13;;;12.25;;
29788;SDS011;64899;42.660;23.268;2022-11-18T09:55:49;22.67;;;11.27;;
29788;SDS011;64899;42.660;23.268;2022-11-18T09:58:16;23.95;;;10.52;;
29788;SDS011;64899;42.660;23.268;2022-11-18T10:00:43;21.38;;;10.57;;
29788;SDS011;64899;42.660;23.268;2022-11-18T10:03:14;19.35;;;10.93;;
29788;SDS011;64899;42.660;23.268;2022-11-18T10:08:17;18.40;;;10.50;;
29788;SDS011;64899;42.660;23.268;2022-11-18T10:13:29;18.60;;;11.45;;
29788;SDS011;64899;42.660;23.268;2022-11-18T10:18:50;17.05;;;9.80;;
29788;SDS011;64899;42.660;23.268;2022-11-18T10:24:17;17.98;;;10.05;;
29788;SDS011;64899;42.660;23.268;2022-11-18T10:26:44;19.58;;;10.85;;
29788;SDS011;64899;42.660;23.268;2022-11-18T10:29:10;18.83;;;10.18;;
29788;SDS011;64899;42.660;23.268;2022-11-18T10:31:39;20.48;;;12.02;;
29788;SDS011;64899;42.660;23.268;2022-11-18T10:34:17;21.48;;;12.63;;
29788;SDS011;64899;42.660;23.268;2022-11-18T10:36:43;22.92;;;12.90;;
29788;SDS011;64899;42.660;23.268;2022-11-18T10:39:09;19.00;;;12.75;;
29788;SDS011;64899;42.660;23.268;2022-11-18T10:41:48;23.58;;;12.73;;
29788;SDS011;64899;42.660;23.268;2022-11-18T10:44:26;25.58;;;14.15;;
29788;SDS011;64899;42.660;23.268;2022-11-18T10:46:54;25.58;;;14.10;;
29788;SDS011;64899;42.660;23.268;2022-11-18T10:49:19;27.38;;;14.82;;
29788;SDS011;64899;42.660;23.268;2022-11-18T10:51:46;24.33;;;15.18;;
29788;SDS011;64899;42.660;23.268;2022-11-18T10:54:33;27.63;;;16.02;;
29788;SDS011;64899;42.660;23.268;2022-11-18T10:57:01;26.33;;;15.57;;
29788;SDS011;64899;42.660;23.268;2022-11-18T11:02:25;34.95;;;19.15;;
29788;SDS011;64899;42.660;23.268;2022-11-18T11:04:58;30.45;;;18.45;;
29788;SDS011;64899;42.660;23.268;2022-11-18T11:07:27;37.17;;;20.45;;
29788;SDS011;64899;42.660;23.268;2022-11-18T11:09:58;35.22;;;20.25;;
29788;SDS011;64899;42.660;23.268;2022-11-18T11:12:50;39.95;;;21.50;;
29788;SDS011;64899;42.660;23.268;2022-11-18T11:18:02;45.78;;;23.40;;
29788;SDS011;64899;42.660;23.268;2022-11-18T11:20:50;41.80;;;21.65;;
29788;SDS011;64899;42.660;23.268;2022-11-18T11:23:16;37.63;;;19.85;;
29788;SDS011;64899;42.660;23.268;2022-11-18T11:42:11;34.08;;;19.35;;
29788;SDS011;64899;42.660;23.268;2022-11-18T11:44:48;38.50;;;20.75;;
29788;SDS011;64899;42.660;23.268;2022-11-18T11:47:43;47.67;;;22.88;;
29788;SDS011;64899;42.660;23.268;2022-11-18T11:53:19;44.88;;;22.38;;
29788;SDS011;64899;42.660;23.268;2022-11-18T11:55:59;46.17;;;22.88;;
29788;SDS011;64899;42.660;23.268;2022-11-18T12:03:44;51.33;;;25.17;;
29788;SDS011;64899;42.660;23.268;2022-11-18T12:06:12;44.42;;;24.20;;
29788;SDS011;64899;42.660;23.268;2022-11-18T12:08:38;46.60;;;24.20;;
29788;SDS011;64899;42.660;23.268;2022-11-18T12:13:50;46.38;;;25.10;;
29788;SDS011;64899;42.660;23.268;2022-11-18T12:16:24;42.17;;;24.52;;
29788;SDS011;64899;42.660;23.268;2022-11-18T12:18:58;48.85;;;24.73;;
29788;SDS011;64899;42.660;23.268;2022-11-18T12:40:04;15.93;;;7.45;;
29788;SDS011;64899;42.660;23.268;2022-11-18T12:42:40;19.48;;;10.95;;
29788;SDS011;64899;42.660;23.268;2022-11-18T12:48:26;15.98;;;7.30;;
29788;SDS011;64899;42.660;23.268;2022-11-18T12:53:38;5.13;;;2.28;;
29788;SDS011;64899;42.660;23.268;2022-11-18T12:56:09;5.28;;;2.65;;
29788;SDS011;64899;42.660;23.268;2022-11-18T12:58:47;8.07;;;2.65;;
29788;SDS011;64899;42.660;23.268;2022-11-18T13:01:18;9.45;;;2.85;;
29788;SDS011;64899;42.660;23.268;2022-11-18T13:03:48;5.50;;;1.77;;
29788;SDS011;64899;42.660;23.268;2022-11-18T13:06:47;3.92;;;2.22;;
29788;SDS011;64899;42.660;23.268;2022-11-18T13:09:14;5.47;;;2.03;;
29788;SDS011;64899;42.660;23.268;2022-11-18T13:14:24;5.50;;;2.15;;
29788;SDS011;64899;42.660;23.268;2022-11-18T13:25:44;3.17;;;1.60;;
29788;SDS011;64899;42.660;23.268;2022-11-18T13:30:54;4.30;;;1.70;;
29788;SDS011;64899;42.660;23.268;2022-11-18T13:33:41;7.13;;;1.67;;
29788;SDS011;64899;42.660;23.268;2022-11-18T13:36:19;6.68;;;1.90;;
29788;SDS011;64899;42.660;23.268;2022-11-18T13:38:56;8.75;;;1.67;;
29788;SDS011;64899;42.660;23.268;2022-11-18T13:41:26;4.95;;;1.70;;
29788;SDS011;64899;42.660;23.268;2022-11-18T13:47:00;1.30;;;1.08;;
29788;SDS011;64899;42.660;23.268;2022-11-18T13:49:47;2.88;;;1.33;;
29788;SDS011;64899;42.660;23.268;2022-11-18T13:53:03;3.75;;;1.65;;
29788;SDS011;64899;42.660;23.268;2022-11-18T13:57:49;1.85;;;1.55;;
29788;SDS011;64899;42.660;23.268;2022-11-18T14:00:26;7.28;;;2.10;;
29788;SDS011;64899;42.660;23.268;2022-11-18T14:02:54;2.47;;;1.75;;
29788;SDS011;64899;42.660;23.268;2022-11-18T14:05:24;3.65;;;1.60;;
29788;SDS011;64899;42.660;23.268;2022-11-18T14:08:19;3.85;;;1.67;;
29788;SDS011;64899;42.660;23.268;2022-11-18T14:10:49;2.40;;;1.52;;
29788;SDS011;64899;42.660;23.268;2022-11-18T14:13:23;1.45;;;1.30;;
29788;SDS011;64899;42.660;23.268;2022-11-18T14:15:49;2.97;;;1.30;;
29788;SDS011;64899;42.660;23.268;2022-11-18T14:18:20;2.78;;;1.33;;
29788;SDS011;64899;42.660;23.268;2022-11-18T14:20:57;3.60;;;1.50;;
29788;SDS011;64899;42.660;23.268;2022-11-18T14:23:34;1.75;;;1.42;;
29788;SDS011;64899;42.660;23.268;2022-11-18T14:26:01;1.92;;;1.30;;
29788;SDS011;64899;42.660;23.268;2022-11-18T14:28:31;6.65;;;1.38;;
29788;SDS011;64899;42.660;23.268;2022-11-18T14:31:07;2.47;;;1.30;;
29788;SDS011;64899;42.660;23.268;2022-11-18T14:36:48;3.85;;;1.70;;
29788;SDS011;64899;42.660;23.268;2022-11-18T14:39:21;3.78;;;1.60;;
29788;SDS011;64899;42.660;23.268;2022-11-18T14:41:49;4.60;;;2.25;;
29788;SDS011;64899;42.660;23.268;2022-11-18T14:44:15;3.60;;;1.52;;
29788;SDS011;64899;42.660;23.268;2022-11-18T14:46:45;3.88;;;1.33;;
29788;SDS011;64899;42.660;23.268;2022-11-18T14:49:13;3.85;;;1.65;;
29788;SDS011;64899;42.660;23.268;2022-11-18T14:51:39;4.60;;;1.67;;
29788;SDS011;64899;42.660;23.268;2022-11-18T14:54:05;2.33;;;1.40;;
29788;SDS011;64899;42.660;23.268;2022-11-18T14:56:30;2.28;;;1.30;;
29788;SDS011;64899;42.660;23.268;2022-11-18T14:58:56;2.67;;;1.63;;
29788;SDS011;64899;42.660;23.268;2022-11-18T15:01:22;3.58;;;1.40;;
29788;SDS011;64899;42.660;23.268;2022-11-18T15:03:49;6.07;;;1.67;;
29788;SDS011;64899;42.660;23.268;2022-11-18T15:06:18;2.40;;;1.50;;
29788;SDS011;64899;42.660;23.268;2022-11-18T15:08:45;4.68;;;1.50;;
29788;SDS011;64899;42.660;23.268;2022-11-18T15:11:11;3.50;;;1.60;;
29788;SDS011;64899;42.660;23.268;2022-11-18T15:13:37;5.50;;;1.92;;
29788;SDS011;64899;42.660;23.268;2022-11-18T15:16:13;11.40;;;2.08;;
29788;SDS011;64899;42.660;23.268;2022-11-18T15:18:41;6.13;;;1.92;;
29788;SDS011;64899;42.660;23.268;2022-11-18T15:21:07;3.03;;;1.95;;
29788;SDS011;64899;42.660;23.268;2022-11-18T15:23:33;3.33;;;1.50;;
29788;SDS011;64899;42.660;23.268;2022-11-18T15:25:59;2.58;;;1.85;;
29788;SDS011;64899;42.660;23.268;2022-11-18T15:28:24;2.30;;;1.63;;
29788;SDS011;64899;42.660;23.268;2022-11-18T15:30:49;3.05;;;1.80;;
29788;SDS011;64899;42.660;23.268;2022-11-18T15:33:15;2.33;;;1.70;;
29788;SDS011;64899;42.660;23.268;2022-11-18T15:35:41;5.68;;;2.30;;
29788;SDS011;64899;42.660;23.268;2022-11-18T15:38:09;4.57;;;1.70;;
29788;SDS011;64899;42.660;23.268;2022-11-18T15:40:35;2.70;;;1.58;;
29788;SDS011;64899;42.660;23.268;2022-11-18T15:43:00;2.75;;;1.80;;
29788;SDS011;64899;42.660;23.268;2022-11-18T15:45:26;5.10;;;2.10;;
29788;SDS011;64899;42.660;23.268;2022-11-18T15:47:51;2.55;;;1.83;;
29788;SDS011;64899;42.660;23.268;2022-11-18T15:50:16;1.88;;;1.63;;
29788;SDS011;64899;42.660;23.268;2022-11-18T15:52:42;3.50;;;1.65;;
29788;SDS011;64899;42.660;23.268;2022-11-18T15:55:08;5.65;;;1.65;;
29788;SDS011;64899;42.660;23.268;2022-11-18T15:57:33;2.28;;;1.73;;
29788;SDS011;64899;42.660;23.268;2022-11-18T15:59:59;2.50;;;1.55;;
29788;SDS011;64899;42.660;23.268;2022-11-18T16:02:24;1.67;;;1.33;;
29788;SDS011;64899;42.660;23.268;2022-11-18T16:04:50;2.58;;;1.73;;
29788;SDS011;64899;42.660;23.268;2022-11-18T16:07:15;3.50;;;1.30;;
29788;SDS011;64899;42.660;23.268;2022-11-18T16:09:40;3.90;;;1.60;;
29788;SDS011;64899;42.660;23.268;2022-11-18T16:15:08;3.65;;;1.50;;
29788;SDS011;64899;42.660;23.268;2022-11-18T16:17:52;2.35;;;1.73;;
29788;SDS011;64899;42.660;23.268;2022-11-18T16:20:17;3.92;;;1.83;;
29788;SDS011;64899;42.660;23.268;2022-11-18T16:22:42;3.67;;;1.58;;
29788;SDS011;64899;42.660;23.268;2022-11-18T16:25:08;7.38;;;1.83;;
29788;SDS011;64899;42.660;23.268;2022-11-18T16:27:34;3.92;;;1.75;;
29788;SDS011;64899;42.660;23.268;2022-11-18T16:30:00;5.63;;;1.70;;
29788;SDS011;64899;42.660;23.268;2022-11-18T16:32:28;2.97;;;1.70;;
29788;SDS011;64899;42.660;23.268;2022-11-18T16:34:53;2.80;;;2.10;;
29788;SDS011;64899;42.660;23.268;2022-11-18T16:37:19;3.88;;;1.60;;